Newport News Williamsburg International Airport
KPHF : now visible

Airfield :











YOU CAN JOIN US ON...

 
LOGIN :

Register | Disclaimer

   EN    FR    IT 

 









Legend :    VFR   Marginal VFR   IFR   Intensive IFR   Very Intensive IFR
Visi :
Ceiling :
>= 8 km
>= 3000ft
5 to 8 km
1000 to 3000 ft
1500m to 5 km
500 to 1000 ft
800 to 1500m
200 to 500 ft
< 800m
< 200 ft
Symbols :   Thunderstorms  Fog  Heavy snow  Heavy precipitations  Wind > 20 kt






- Airport Elevation : 42 ft
- IATA code : PHF


KPHF - Newport News Williamsburg International

CURRENT METAR :
  • 141454Z 19011KT 10SM CLR 20/02 A3010 RMK AO2 SLP192 T02000017 58003

EXPIRED METARs :
  • 141354Z 20010KT 10SM CLR 18/00 A3012 RMK AO2 SLP199 T01830000
  • 141254Z 00000KT 10SM CLR 16/06 A3011 RMK AO2 SLP195 T01560056
  • 141154Z 00000KT 10SM CLR 09/07 A3011 RMK AO2 SLP195 T00940067 10094 20033 53016
  • 141054Z 00000KT 10SM CLR 04/03 A3010 RMK AO2 SLP190 T00440033

TAF KPHF
Valid from the 14 at 12:00 until the 15 at 12:00 UTC


141120Z 1412/1512 22005KT P6SM SKC
FM141400 22009KT P6SM SKC
FM141700 21016G25KT P6SM FEW250
FM150000 22012KT P6SM SCT250
KZDC FIR / North America



MET'MAP, your aeronautical weather chart ! - Copyright ORBIFLY December 2007 - Disclaimer

ORBIFLY MET'MAP TEAM :

Programming & Development : Alexandra Zaïnal
Original concept : Baudouin d'Aumeries
Technical & hardware support : Manuel Goepfert
Assistance : Marc-Olivier Méhu




SOURCES & CREDITS :

   NOAA       Earth
Advisory